createdAt,value
2022-08-14T00:01:50.285Z,950.30
2022-08-14T00:04:34.573Z,967.57
2022-08-14T00:07:03.074Z,967.70
2022-08-14T00:09:32.988Z,947.07
2022-08-14T00:12:00.761Z,945.37
2022-08-14T00:14:29.080Z,945.87
2022-08-14T00:16:56.709Z,943.67
2022-08-14T00:19:24.455Z,942.53
2022-08-14T00:21:55.303Z,973.53
2022-08-14T00:24:29.078Z,948.53
2022-08-14T00:27:01.846Z,990.50
2022-08-14T00:29:30.829Z,887.53
2022-08-14T00:32:51.847Z,931.47
2022-08-14T00:34:56.645Z,888.63
2022-08-14T00:37:24.466Z,901.07
2022-08-14T00:39:52.162Z,895.33
2022-08-14T00:42:56.002Z,848.53
2022-08-14T00:45:11.420Z,892.60
2022-08-14T00:47:44.789Z,908.07
2022-08-14T00:50:17.870Z,886.60
2022-08-14T00:52:47.395Z,896.07
2022-08-14T00:55:19.957Z,895.07
2022-08-14T00:58:10.117Z,895.03
2022-08-14T01:00:47.496Z,875.73
2022-08-14T01:03:20.255Z,880.93
2022-08-14T01:05:51.534Z,879.60
2022-08-14T01:08:52.169Z,879.73
2022-08-14T01:11:09.621Z,907.10
2022-08-14T01:13:43.091Z,876.27
2022-08-14T01:16:14.798Z,870.33
2022-08-14T01:19:02.290Z,865.33
2022-08-14T01:21:34.612Z,943.03
2022-08-14T01:24:09.876Z,916.77
2022-08-14T01:26:39.102Z,943.60
2022-08-14T01:29:10.942Z,924.60
2022-08-14T01:31:45.337Z,930.57
2022-08-14T01:35:19.688Z,871.27
2022-08-14T01:37:07.576Z,920.43
2022-08-14T01:39:38.989Z,899.20
2022-08-14T01:42:06.736Z,888.23
2022-08-14T01:44:38.054Z,889.00
2022-08-14T01:47:21.840Z,913.90
2022-08-14T01:49:59.623Z,825.27
2022-08-14T01:52:34.178Z,825.80
2022-08-14T01:55:19.379Z,784.43
2022-08-14T01:58:01.007Z,777.37
2022-08-14T02:00:38.862Z,799.27
2022-08-14T02:03:06.947Z,745.67
2022-08-14T02:05:38.164Z,760.07
2022-08-14T02:08:09.586Z,757.60
2022-08-14T02:10:38.546Z,747.87
2022-08-14T02:13:15.942Z,744.17
2022-08-14T02:15:44.191Z,752.80
2022-08-14T02:18:15.271Z,771.53
2022-08-14T02:20:43.111Z,738.97
2022-08-14T02:23:12.928Z,768.63
2022-08-14T02:25:40.428Z,790.13
2022-08-14T02:28:24.684Z,816.70
2022-08-14T02:30:56.131Z,779.37
2022-08-14T02:33:23.714Z,775.47
2022-08-14T02:35:53.571Z,761.50
2022-08-14T02:38:30.338Z,744.47
2022-08-14T02:41:01.904Z,826.93
2022-08-14T02:43:36.443Z,780.50
2022-08-14T02:46:05.196Z,787.60
2022-08-14T02:49:04.410Z,754.30
2022-08-14T02:51:24.356Z,765.03
2022-08-14T02:54:01.856Z,758.83
2022-08-14T02:57:15.274Z,785.33
2022-08-14T02:59:21.134Z,788.43
2022-08-14T03:01:51.190Z,785.10
2022-08-14T03:04:22.865Z,747.10
2022-08-14T03:07:06.314Z,815.17
2022-08-14T03:10:25.189Z,908.93
2022-08-14T03:12:31.699Z,778.30
2022-08-14T03:15:00.667Z,793.90
2022-08-14T03:17:32.037Z,785.30
2022-08-14T03:20:11.337Z,769.57
2022-08-14T03:22:41.982Z,724.77
2022-08-14T03:25:12.220Z,756.77
2022-08-14T03:27:48.549Z,742.60
2022-08-14T03:30:39.255Z,806.43
2022-08-14T03:33:09.202Z,815.07
2022-08-14T03:35:40.231Z,814.70
2022-08-14T03:39:12.539Z,819.97
2022-08-14T03:41:16.776Z,801.37
2022-08-14T03:43:44.729Z,786.30
2022-08-14T03:46:51.952Z,819.53
2022-08-14T03:49:03.067Z,825.20
2022-08-14T03:51:31.265Z,786.87
2022-08-14T03:54:00.421Z,732.97
2022-08-14T03:56:31.101Z,767.67
2022-08-14T03:59:00.033Z,725.07
2022-08-14T04:01:29.181Z,745.87
2022-08-14T04:04:07.927Z,746.47
2022-08-14T04:06:46.842Z,715.77
2022-08-14T04:09:20.005Z,737.93
2022-08-14T04:11:48.929Z,727.30
2022-08-14T04:14:18.341Z,700.23
2022-08-14T04:16:48.088Z,702.30
2022-08-14T04:19:20.604Z,705.33
2022-08-14T04:22:03.057Z,685.17
2022-08-14T04:24:38.994Z,706.47
2022-08-14T04:27:09.975Z,710.97
2022-08-14T04:29:38.898Z,618.70
2022-08-14T04:32:57.388Z,702.47
2022-08-14T04:34:55.861Z,822.87
2022-08-14T04:37:41.222Z,818.30
2022-08-14T04:40:27.890Z,843.53
2022-08-14T04:43:17.355Z,856.47
2022-08-14T04:45:45.619Z,813.90
2022-08-14T04:48:36.700Z,820.57
2022-08-14T04:51:09.432Z,844.80
2022-08-14T04:53:42.835Z,851.43
2022-08-14T04:56:31.458Z,884.07
2022-08-14T04:59:03.718Z,797.07
2022-08-14T05:01:39.640Z,825.43
2022-08-14T05:04:08.580Z,783.07
2022-08-14T05:06:38.964Z,838.17
2022-08-14T05:09:14.027Z,772.67
2022-08-14T05:11:42.042Z,774.57
2022-08-14T05:14:17.257Z,794.13
2022-08-14T05:17:01.797Z,702.73
2022-08-14T05:19:31.959Z,631.13
2022-08-14T05:22:16.856Z,618.10
2022-08-14T05:24:48.678Z,1999.90
2022-08-14T05:27:19.947Z,1999.90
2022-08-14T05:29:53.262Z,1999.90
2022-08-14T05:32:21.267Z,1999.90
2022-08-14T05:34:48.773Z,1999.90
2022-08-14T05:37:16.266Z,1999.90
2022-08-14T05:39:43.904Z,1999.90
2022-08-14T05:42:22.276Z,1999.90
2022-08-14T05:44:57.996Z,1999.90
2022-08-14T05:47:29.178Z,692.70
2022-08-14T05:50:07.374Z,1363.63
2022-08-14T05:52:45.249Z,1202.88
2022-08-14T05:55:12.850Z,514.13
2022-08-14T05:57:50.298Z,334.63
2022-08-14T06:00:28.416Z,376.13
2022-08-14T06:02:57.148Z,419.77
2022-08-14T06:05:28.735Z,113.88
2022-08-14T06:07:57.360Z,79.88
2022-08-14T06:10:25.429Z,87.05
2022-08-14T06:12:57.164Z,102.43
2022-08-14T06:15:30.603Z,433.42
2022-08-14T06:17:59.814Z,328.92
2022-08-14T06:20:28.628Z,98.20
2022-08-14T06:22:57.683Z,97.13
2022-08-14T06:25:26.979Z,102.55
2022-08-14T06:27:55.318Z,89.20
2022-08-14T06:30:24.026Z,78.75
2022-08-14T06:33:00.985Z,73.30
2022-08-14T06:35:30.243Z,65.85
2022-08-14T06:37:58.936Z,58.40
2022-08-14T06:40:28.713Z,63.25
2022-08-14T06:42:56.758Z,54.95
2022-08-14T06:45:28.277Z,64.10
2022-08-14T06:47:58.626Z,91.95
2022-08-14T06:50:28.711Z,61.67
2022-08-14T06:52:58.733Z,80.05
2022-08-14T06:55:28.126Z,148.95
2022-08-14T06:57:57.763Z,213.10
2022-08-14T07:00:27.462Z,230.95
2022-08-14T07:03:16.663Z,247.70
2022-08-14T07:05:58.206Z,247.52
2022-08-14T07:08:31.142Z,211.02
2022-08-14T07:11:00.167Z,160.63
2022-08-14T07:13:30.689Z,164.48
2022-08-14T07:15:59.172Z,156.73
2022-08-14T07:18:29.254Z,122.40
2022-08-14T07:20:58.375Z,188.73
2022-08-14T07:23:25.999Z,220.75
2022-08-14T07:25:54.754Z,243.68
2022-08-14T07:28:27.255Z,261.33
2022-08-14T07:30:57.660Z,232.65
2022-08-14T07:33:34.835Z,275.85
2022-08-14T07:36:26.256Z,277.58
2022-08-14T07:38:52.623Z,258.88
2022-08-14T07:41:20.108Z,303.98
2022-08-14T07:43:55.577Z,281.35
2022-08-14T07:46:29.311Z,283.77
2022-08-14T07:48:58.646Z,269.63
2022-08-14T07:51:33.994Z,263.13
2022-08-14T07:54:02.258Z,240.35
2022-08-14T07:56:47.510Z,239.38
2022-08-14T07:59:18.500Z,275.88
2022-08-14T08:01:51.319Z,239.55
2022-08-14T08:04:24.321Z,232.50
2022-08-14T08:06:54.876Z,241.13
2022-08-14T08:09:24.640Z,240.63
2022-08-14T08:12:00.359Z,225.93
2022-08-14T08:14:28.488Z,220.60
2022-08-14T08:16:57.128Z,207.52
2022-08-14T08:19:25.684Z,200.95
2022-08-14T08:21:54.811Z,222.25
2022-08-14T08:24:22.482Z,204.48
2022-08-14T08:26:50.828Z,201.75
2022-08-14T08:29:28.277Z,214.30
2022-08-14T08:32:01.657Z,216.15
2022-08-14T08:34:44.868Z,219.10
2022-08-14T08:37:14.634Z,229.40
2022-08-14T08:40:03.367Z,209.13
2022-08-14T08:42:38.620Z,207.55
2022-08-14T08:45:12.033Z,225.10
2022-08-14T08:47:40.637Z,235.70
2022-08-14T08:50:23.215Z,222.93
2022-08-14T08:53:02.201Z,257.90
2022-08-14T08:55:31.897Z,263.85
2022-08-14T08:58:02.901Z,226.82
2022-08-14T09:00:34.840Z,238.90
2022-08-14T09:03:05.652Z,260.42
2022-08-14T09:05:34.740Z,219.23
2022-08-14T09:08:30.928Z,201.27
2022-08-14T09:11:01.025Z,192.23
2022-08-14T09:13:30.672Z,195.15
2022-08-14T09:16:18.586Z,207.38
2022-08-14T09:18:47.777Z,210.02
2022-08-14T09:21:16.385Z,195.05
2022-08-14T09:24:26.120Z,207.52
2022-08-14T09:26:34.089Z,215.80
2022-08-14T09:29:02.607Z,229.55
2022-08-14T09:31:42.584Z,215.27
2022-08-14T09:34:27.315Z,217.93
2022-08-14T09:37:08.771Z,224.63
2022-08-14T09:39:46.125Z,219.57
2022-08-14T09:42:33.527Z,217.75
2022-08-14T09:45:10.902Z,236.88
2022-08-14T09:47:42.365Z,238.63
2022-08-14T09:50:16.933Z,249.18
2022-08-14T09:52:54.762Z,261.08
2022-08-14T09:55:28.075Z,252.25
2022-08-14T09:58:08.477Z,255.93
2022-08-14T10:00:44.237Z,216.07
2022-08-14T10:03:14.179Z,217.57
2022-08-14T10:05:41.932Z,294.17
2022-08-14T10:08:25.607Z,222.18
2022-08-14T10:11:02.467Z,209.88
2022-08-14T10:13:42.893Z,207.43
2022-08-14T10:16:21.830Z,198.77
2022-08-14T10:19:02.663Z,196.35
2022-08-14T10:21:30.959Z,198.13
2022-08-14T10:24:08.906Z,209.90
2022-08-14T10:26:38.719Z,362.65
2022-08-14T10:29:19.868Z,210.80
2022-08-14T10:31:57.472Z,205.20
2022-08-14T10:34:35.517Z,197.32
2022-08-14T10:37:14.031Z,204.43
2022-08-14T10:39:51.377Z,184.57
2022-08-14T10:42:38.013Z,172.32
2022-08-14T10:45:21.491Z,185.77
2022-08-14T10:48:08.912Z,173.50
2022-08-14T10:50:38.583Z,179.52
2022-08-14T10:53:08.029Z,181.40
2022-08-14T10:55:39.480Z,173.80
2022-08-14T10:58:17.135Z,156.93
2022-08-14T11:00:56.818Z,133.55
2022-08-14T11:03:26.666Z,136.90
2022-08-14T11:06:12.822Z,133.55
2022-08-14T11:08:40.634Z,167.48
2022-08-14T11:11:08.781Z,163.05
2022-08-14T11:13:38.815Z,207.60
2022-08-14T11:16:07.571Z,146.07
2022-08-14T11:22:04.421Z,133.05
2022-08-14T11:24:54.499Z,144.60
2022-08-14T11:27:33.116Z,128.30
2022-08-14T11:30:50.182Z,127.82
2022-08-14T11:32:55.560Z,124.88
2022-08-14T11:35:24.364Z,128.75
2022-08-14T11:37:53.296Z,115.78
2022-08-14T11:40:29.264Z,106.03
2022-08-14T11:42:59.685Z,110.47
2022-08-14T11:45:32.854Z,114.90
2022-08-14T11:49:01.961Z,106.43
2022-08-14T11:51:13.571Z,135.48
2022-08-14T11:53:44.787Z,100.35
2022-08-14T11:56:13.593Z,101.68
2022-08-14T11:58:41.154Z,103.55
2022-08-14T12:01:11.419Z,106.28
2022-08-14T12:03:46.750Z,104.20
2022-08-14T12:06:28.908Z,102.63
2022-08-14T12:09:08.638Z,114.43
2022-08-14T12:11:44.105Z,112.93
2022-08-14T12:14:29.855Z,115.72
2022-08-14T12:17:02.306Z,123.47
2022-08-14T12:19:33.802Z,124.75
2022-08-14T12:22:02.952Z,131.43
2022-08-14T12:24:36.657Z,166.77
2022-08-14T12:27:07.630Z,143.68
2022-08-14T12:29:36.982Z,141.70
2022-08-14T12:32:12.780Z,149.02
2022-08-14T12:34:45.168Z,158.70
2022-08-14T12:37:12.888Z,151.23
2022-08-14T12:39:40.918Z,175.98
2022-08-14T12:42:11.806Z,195.25
2022-08-14T12:44:58.735Z,198.75
2022-08-14T12:47:31.316Z,201.32
2022-08-14T12:49:59.424Z,181.70
2022-08-14T12:52:43.187Z,172.02
2022-08-14T12:55:20.880Z,150.90
2022-08-14T12:57:53.357Z,148.57
2022-08-14T13:00:24.047Z,139.18
2022-08-14T13:02:55.725Z,159.93
2022-08-14T13:05:25.201Z,173.13
2022-08-14T13:07:57.273Z,176.93
2022-08-14T13:10:47.724Z,161.20
2022-08-14T13:13:17.037Z,175.23
2022-08-14T13:15:46.297Z,176.93
2022-08-14T13:18:16.915Z,167.73
2022-08-14T13:20:49.760Z,170.15
2022-08-14T13:23:32.231Z,189.13
2022-08-14T13:26:00.164Z,201.00
2022-08-14T13:28:33.188Z,188.23
2022-08-14T13:31:03.729Z,200.27
2022-08-14T13:33:41.355Z,166.98
2022-08-14T13:36:19.903Z,153.20
2022-08-14T13:38:52.542Z,152.98
2022-08-14T13:41:28.023Z,170.98
2022-08-14T13:44:00.590Z,172.15
2022-08-14T13:46:28.611Z,180.02
2022-08-14T13:49:00.012Z,193.52
2022-08-14T13:51:29.941Z,188.40
2022-08-14T13:54:10.609Z,190.77
2022-08-14T13:56:40.545Z,182.43
2022-08-14T13:59:08.609Z,206.15
2022-08-14T14:01:43.653Z,180.57
2022-08-14T14:04:19.202Z,157.32
2022-08-14T14:06:48.246Z,165.48
2022-08-14T14:09:16.624Z,152.52
2022-08-14T14:11:44.649Z,155.27
2022-08-14T14:14:44.851Z,121.35
2022-08-14T14:17:01.182Z,114.93
2022-08-14T14:19:30.853Z,112.28
2022-08-14T14:21:59.045Z,108.38
2022-08-14T14:24:26.566Z,106.97
2022-08-14T14:27:30.098Z,107.40
2022-08-14T14:29:55.650Z,102.45
2022-08-14T14:32:31.255Z,112.25
2022-08-14T14:35:05.666Z,113.30
2022-08-14T14:37:34.195Z,111.53
2022-08-14T14:40:52.026Z,107.47
2022-08-14T14:42:51.915Z,110.60
2022-08-14T14:45:22.221Z,124.25
2022-08-14T14:47:59.015Z,124.25
2022-08-14T14:50:31.117Z,122.18
2022-08-14T14:53:12.958Z,119.72
2022-08-14T14:55:59.506Z,160.40
2022-08-14T14:58:31.217Z,112.22
2022-08-14T15:01:00.549Z,119.00
2022-08-14T15:03:30.737Z,110.38
2022-08-14T15:05:59.661Z,102.47
2022-08-14T15:08:55.535Z,110.35
2022-08-14T15:11:18.097Z,102.13
2022-08-14T15:13:53.262Z,101.53
2022-08-14T15:16:21.066Z,101.85
2022-08-14T15:18:49.250Z,97.30
2022-08-14T15:21:18.267Z,100.32
2022-08-14T15:23:48.117Z,103.97
2022-08-14T15:26:31.359Z,97.55
2022-08-14T15:29:03.141Z,93.88
2022-08-14T15:31:34.957Z,93.40
2022-08-14T15:34:45.442Z,94.40
2022-08-14T15:37:02.647Z,93.47
2022-08-14T15:39:34.138Z,93.88
2022-08-14T15:42:14.468Z,95.57
2022-08-14T15:44:57.568Z,98.53
2022-08-14T15:47:28.079Z,95.07
2022-08-14T15:49:59.766Z,96.75
2022-08-14T15:52:33.165Z,93.70
2022-08-14T15:55:03.641Z,93.93
2022-08-14T15:57:32.214Z,95.93
2022-08-14T16:00:40.425Z,93.53
2022-08-14T16:03:15.599Z,91.82
2022-08-14T16:05:44.549Z,100.50
2022-08-14T16:08:29.511Z,91.40
2022-08-14T16:10:59.163Z,93.10
2022-08-14T16:13:41.861Z,95.53
2022-08-14T16:16:49.974Z,99.22
2022-08-14T16:18:59.641Z,98.07
2022-08-14T16:21:29.490Z,95.43
2022-08-14T16:24:01.179Z,95.22
2022-08-14T16:26:29.782Z,94.55
2022-08-14T16:29:02.557Z,92.90
2022-08-14T16:31:35.886Z,85.43
2022-08-14T16:34:43.953Z,84.70
2022-08-14T16:36:51.955Z,98.28
2022-08-14T16:39:22.199Z,73.50
2022-08-14T16:41:51.232Z,78.78
2022-08-14T16:44:21.798Z,85.63
2022-08-14T16:47:02.667Z,94.47
2022-08-14T16:50:03.087Z,74.70
2022-08-14T16:52:26.008Z,73.45
2022-08-14T16:55:08.813Z,71.90
2022-08-14T16:57:46.985Z,72.82
2022-08-14T17:00:28.314Z,73.05
2022-08-14T17:03:00.894Z,72.70
2022-08-14T17:05:29.226Z,73.15
2022-08-14T17:08:31.529Z,68.78
2022-08-14T17:11:04.886Z,58.85
2022-08-14T17:13:59.468Z,63.55
2022-08-14T17:16:26.081Z,59.20
2022-08-14T17:19:00.609Z,58.88
2022-08-14T17:21:31.559Z,56.00
2022-08-14T17:24:01.384Z,57.08
2022-08-14T17:26:55.325Z,56.38
2022-08-14T17:29:29.424Z,54.85
2022-08-14T17:32:02.236Z,55.72
2022-08-14T17:34:45.018Z,55.20
2022-08-14T17:37:24.287Z,52.20
2022-08-14T17:40:00.526Z,51.45
2022-08-14T17:42:42.993Z,52.30
2022-08-14T17:45:12.173Z,51.13
2022-08-14T17:47:40.073Z,51.95
2022-08-14T17:51:00.437Z,51.55
2022-08-14T17:52:59.410Z,49.50
2022-08-14T17:56:01.938Z,48.67
2022-08-14T17:58:21.251Z,47.80
2022-08-14T18:00:52.256Z,48.42
2022-08-14T18:03:50.975Z,45.10
2022-08-14T18:06:39.922Z,46.58
2022-08-14T18:08:58.617Z,45.75
2022-08-14T18:11:27.284Z,46.55
2022-08-14T18:14:20.748Z,47.83
2022-08-14T18:17:02.488Z,47.20
2022-08-14T18:19:34.484Z,48.90
2022-08-14T18:22:05.784Z,47.83
2022-08-14T18:24:53.320Z,47.00
2022-08-14T18:27:23.294Z,48.13
2022-08-14T18:29:54.897Z,47.88
2022-08-14T18:32:47.332Z,48.35
2022-08-14T18:35:23.680Z,46.95
2022-08-14T18:38:26.074Z,49.67
2022-08-14T18:41:36.948Z,48.88
2022-08-14T18:44:05.143Z,49.67
2022-08-14T18:47:03.274Z,51.85
2022-08-14T18:49:54.442Z,52.80
2022-08-14T18:52:24.224Z,54.38
2022-08-14T18:54:59.009Z,60.08
2022-08-14T18:57:40.362Z,64.93
2022-08-14T19:00:39.962Z,68.30
2022-08-14T19:03:08.176Z,74.45
2022-08-14T19:05:54.838Z,76.25
2022-08-14T19:08:27.169Z,80.90
2022-08-14T19:10:59.414Z,80.13
2022-08-14T19:13:48.478Z,85.60
2022-08-14T19:16:22.763Z,87.38
2022-08-14T19:18:52.042Z,87.00
2022-08-14T19:21:26.170Z,91.72
2022-08-14T19:24:27.738Z,86.13
2022-08-14T19:27:14.724Z,88.28
2022-08-14T19:29:47.850Z,87.28
2022-08-14T19:32:39.760Z,81.15
2022-08-14T19:35:48.955Z,85.80
2022-08-14T19:38:32.751Z,81.43
2022-08-14T19:41:02.342Z,78.05
2022-08-14T19:43:56.526Z,82.32
2022-08-14T19:46:38.625Z,86.78
2022-08-14T19:49:23.111Z,72.55
2022-08-14T19:52:03.840Z,68.40
2022-08-14T19:54:31.845Z,86.05
2022-08-14T19:57:03.851Z,70.90
2022-08-14T19:59:36.609Z,155.73
2022-08-14T20:02:24.920Z,242.40
2022-08-14T20:04:58.036Z,613.15
2022-08-14T20:07:58.887Z,739.50
2022-08-14T20:11:04.858Z,527.95
2022-08-14T20:13:15.345Z,629.45
2022-08-14T20:15:52.395Z,375.92
2022-08-14T20:18:48.587Z,448.50
2022-08-14T20:21:14.098Z,1135.72
2022-08-14T20:23:42.675Z,747.17
2022-08-14T20:26:30.586Z,1244.30
2022-08-14T20:29:04.540Z,1137.35
2022-08-14T20:31:36.940Z,982.58
2022-08-14T20:34:06.805Z,881.90
2022-08-14T20:36:38.075Z,892.00
2022-08-14T20:39:09.410Z,1233.78
2022-08-14T20:41:43.933Z,1504.38
2022-08-14T20:44:39.474Z,1999.90
2022-08-14T20:47:08.035Z,1999.90
2022-08-14T20:49:37.334Z,1999.90
2022-08-14T20:52:18.984Z,1999.90
2022-08-14T20:54:51.547Z,1999.90
2022-08-14T20:57:19.812Z,1999.90
2022-08-14T20:59:53.328Z,1999.90
2022-08-14T21:02:29.591Z,1999.90
2022-08-14T21:04:58.720Z,1999.90
2022-08-14T21:07:35.416Z,1999.90
2022-08-14T21:10:33.073Z,1999.90
2022-08-14T21:13:25.377Z,1999.90
2022-08-14T21:15:43.492Z,1999.90
2022-08-14T21:18:28.794Z,1999.90
2022-08-14T21:20:58.030Z,1999.90
2022-08-14T21:23:32.334Z,1999.90
2022-08-14T21:26:05.363Z,1999.90
2022-08-14T21:28:35.545Z,1999.90
2022-08-14T21:31:04.419Z,1999.90
2022-08-14T21:33:35.302Z,1999.90
2022-08-14T21:36:07.577Z,1999.90
2022-08-14T21:38:36.558Z,1999.90
2022-08-14T21:41:42.405Z,1999.90
2022-08-14T21:44:17.028Z,1999.90
2022-08-14T21:46:47.037Z,1999.90
2022-08-14T21:49:17.394Z,1999.90
2022-08-14T21:51:54.214Z,1999.90
2022-08-14T21:54:30.410Z,1999.90
2022-08-14T21:57:00.384Z,1999.90
2022-08-14T21:59:30.922Z,1999.90
2022-08-14T22:02:00.277Z,1999.90
2022-08-14T22:04:33.297Z,1999.90
2022-08-14T22:07:02.658Z,1999.90
2022-08-14T22:09:32.398Z,1999.90
2022-08-14T22:12:06.765Z,1999.90
2022-08-14T22:14:43.569Z,1999.90
2022-08-14T22:17:13.245Z,1999.90
2022-08-14T22:19:54.395Z,1999.90
2022-08-14T22:22:22.667Z,1999.90
2022-08-14T22:24:53.831Z,1999.90
2022-08-14T22:27:21.877Z,1999.90
2022-08-14T22:29:54.640Z,1999.90
2022-08-14T22:32:35.142Z,1999.90
2022-08-14T22:35:05.558Z,1999.90
2022-08-14T22:37:39.685Z,1999.90
2022-08-14T22:40:46.173Z,1999.90
2022-08-14T22:43:08.063Z,1999.90
2022-08-14T22:45:37.865Z,1999.90
2022-08-14T22:48:10.653Z,1999.90
2022-08-14T22:50:48.840Z,1999.90
2022-08-14T22:53:17.385Z,1999.90
2022-08-14T22:55:47.126Z,1999.90
2022-08-14T22:58:17.221Z,1999.90
2022-08-14T23:00:45.816Z,1999.90
2022-08-14T23:03:17.462Z,1999.90
2022-08-14T23:05:53.032Z,451.20
2022-08-14T23:08:57.018Z,1999.90
2022-08-14T23:11:12.082Z,1999.90
2022-08-14T23:13:43.451Z,1999.90
2022-08-14T23:16:19.680Z,1999.90
2022-08-14T23:18:48.436Z,1465.47
2022-08-14T23:21:24.715Z,1474.00
2022-08-14T23:23:55.131Z,1999.90
2022-08-14T23:26:49.807Z,607.70
2022-08-14T23:29:11.979Z,658.80
2022-08-14T23:31:40.083Z,856.00
2022-08-14T23:34:10.020Z,725.90
2022-08-14T23:36:53.067Z,755.03
2022-08-14T23:39:24.659Z,760.23
2022-08-14T23:42:02.595Z,718.87
2022-08-14T23:44:35.331Z,723.93
2022-08-14T23:47:05.646Z,661.07
2022-08-14T23:50:00.108Z,601.93
2022-08-14T23:52:50.734Z,679.53
2022-08-14T23:55:17.158Z,604.83
2022-08-14T23:57:57.942Z,504.20
